Time;durP1;ratioP1;P1;durP2;ratioP2;P2;SDS_P1;SDS_P2;PMS_P1;PMS_P2;Temp;Humidity;BMP_temperature;BMP_pressure;BME280_temperature;BME280_humidity;BME280_pressure;Samples;Min_cycle;Max_cycle;Signal;HPM_P1;HPM_P2
2023/10/26 00:01:48;;;;;;;1.85;1.23;;;;;;;17.61;62.72;98012.16;4386840;32;33560;-70
2023/10/26 00:04:16;;;;;;;1.58;1.10;;;;;;;17.68;62.34;97996.78;4387999;32;33492;-71
2023/10/26 00:06:44;;;;;;;1.55;0.98;;;;;;;17.67;62.14;97987.00;4389034;32;34029;-77
2023/10/26 00:09:12;;;;;;;1.48;0.77;;;;;;;17.82;61.69;97984.19;4389383;32;34789;-77
2023/10/26 00:11:40;;;;;;;2.47;0.82;;;;;;;17.73;61.86;97982.66;4387380;32;33116;-77
2023/10/26 00:14:07;;;;;;;5.70;2.37;;;;;;;17.68;62.08;97983.25;4386131;32;33577;-76
2023/10/26 00:16:35;;;;;;;4.85;1.55;;;;;;;17.60;62.13;97972.63;4387463;32;35318;-77
2023/10/26 00:19:03;;;;;;;1.75;0.85;;;;;;;17.71;61.94;97976.59;4388895;32;35235;-77
2023/10/26 00:21:31;;;;;;;2.42;1.17;;;;;;;17.75;61.77;97983.25;4385895;32;33531;-77
2023/10/26 00:23:58;;;;;;;1.83;1.10;;;;;;;17.88;61.30;97979.78;4380493;32;33517;-77
2023/10/26 00:26:26;;;;;;;2.20;1.17;;;;;;;17.96;61.03;97981.50;4382703;32;33590;-77
2023/10/26 00:28:54;;;;;;;6.05;0.90;;;;;;;18.00;60.68;97966.50;4388321;32;34926;-71
2023/10/26 00:31:22;;;;;;;1.60;0.88;;;;;;;18.00;60.72;97963.81;4380944;32;33159;-74
2023/10/26 00:33:50;;;;;;;3.30;1.10;;;;;;;18.13;60.23;97966.53;4386097;32;33605;-71
2023/10/26 00:36:17;;;;;;;3.60;1.40;;;;;;;18.16;60.04;97963.41;4389567;32;33939;-71
2023/10/26 00:38:45;;;;;;;3.92;1.42;;;;;;;17.89;60.81;97955.25;4389182;32;33876;-71
2023/10/26 00:41:13;;;;;;;5.75;1.65;;;;;;;17.70;61.45;97954.12;4388327;32;34690;-71
2023/10/26 00:43:40;;;;;;;3.28;1.58;;;;;;;17.86;60.90;97957.53;4389131;32;34368;-71
2023/10/26 00:46:10;;;;;;;1.98;0.93;;;;;;;17.83;61.09;97958.78;4387637;32;33931;-71
2023/10/26 00:48:39;;;;;;;3.30;1.15;;;;;;;17.84;60.92;97957.72;4388350;32;35392;-70
2023/10/26 00:51:07;;;;;;;1.37;0.60;;;;;;;17.76;61.06;97955.19;4381679;32;33814;-70
2023/10/26 00:53:35;;;;;;;5.12;1.27;;;;;;;17.91;60.61;97958.59;4379917;32;35014;-70
2023/10/26 00:56:04;;;;;;;2.75;1.30;;;;;;;17.90;60.59;97956.91;4388008;32;34118;-70
2023/10/26 00:58:32;;;;;;;2.55;1.25;;;;;;;17.93;60.50;97952.97;4389950;32;33972;-70
2023/10/26 01:01:00;;;;;;;2.40;0.85;;;;;;;17.90;60.56;97954.19;4390927;32;33264;-70
2023/10/26 01:03:30;;;;;;;2.53;0.80;;;;;;;17.96;60.19;97955.25;4382258;32;33585;-70
2023/10/26 01:05:58;;;;;;;11.75;1.27;;;;;;;17.83;60.54;97949.81;4386168;32;34857;-70
2023/10/26 01:08:25;;;;;;;2.12;1.27;;;;;;;17.38;62.05;97947.56;4384821;32;33895;-70
2023/10/26 01:10:54;;;;;;;3.30;1.75;;;;;;;17.47;61.88;97942.81;4387363;32;33438;-70
2023/10/26 01:13:22;;;;;;;1.33;1.05;;;;;;;17.40;62.17;97947.38;4389023;32;34845;-70
2023/10/26 01:15:49;;;;;;;4.57;1.85;;;;;;;17.55;61.63;97948.03;4382930;32;34931;-70
2023/10/26 01:18:17;;;;;;;1.70;1.20;;;;;;;17.14;63.02;97948.06;4389448;32;33965;-70
2023/10/26 01:20:45;;;;;;;1.50;1.00;;;;;;;17.34;62.49;97931.97;4390777;32;33537;-70
2023/10/26 01:23:12;;;;;;;3.03;1.20;;;;;;;17.48;61.82;97933.66;4390715;32;35141;-70
2023/10/26 01:25:40;;;;;;;13.38;1.00;;;;;;;17.54;61.61;97929.31;4390459;32;35765;-70
2023/10/26 01:28:08;;;;;;;1.17;0.77;;;;;;;17.49;61.85;97934.50;4390691;32;35313;-73
2023/10/26 01:30:35;;;;;;;2.30;0.98;;;;;;;17.56;61.65;97930.78;4392049;32;35197;-73
2023/10/26 01:33:03;;;;;;;1.45;0.85;;;;;;;17.46;61.90;97928.47;4384677;32;33644;-73
2023/10/26 01:35:40;;;;;;;3.78;1.15;;;;;;;17.25;62.71;97928.59;4380770;32;33887;-73
2023/10/26 01:38:08;;;;;;;6.18;1.95;;;;;;;16.54;65.47;97926.91;4367413;32;33869;-73
2023/10/26 01:40:36;;;;;;;1.85;1.00;;;;;;;16.40;65.85;97930.53;4360377;32;33274;-72
2023/10/26 01:43:03;;;;;;;1.33;1.00;;;;;;;16.81;64.52;97926.28;4365783;32;32423;-73
2023/10/26 01:45:31;;;;;;;3.17;1.58;;;;;;;16.35;66.41;97932.16;4368876;32;35485;-72
2023/10/26 01:48:00;;;;;;;2.25;0.82;;;;;;;16.48;65.68;97932.25;4372783;32;33586;-74
2023/10/26 01:50:29;;;;;;;2.42;1.30;;;;;;;16.34;66.46;97936.72;4352291;32;34700;-74
2023/10/26 01:52:57;;;;;;;3.78;1.15;;;;;;;16.69;65.24;97934.06;4357750;32;33398;-74
2023/10/26 01:55:25;;;;;;;2.97;1.55;;;;;;;16.89;64.43;97936.94;4374550;32;34229;-73
2023/10/26 01:57:52;;;;;;;2.33;1.12;;;;;;;16.54;65.54;97935.00;4371195;32;33901;-74
2023/10/26 02:00:20;;;;;;;6.57;2.03;;;;;;;16.75;64.98;97930.59;4361276;32;33164;-73
2023/10/26 02:02:49;;;;;;;4.53;1.23;;;;;;;16.80;64.70;97921.91;4358688;32;33858;-72
2023/10/26 02:05:17;;;;;;;1.48;0.93;;;;;;;16.48;65.79;97932.25;4373734;32;33034;-73
2023/10/26 02:07:45;;;;;;;10.18;1.10;;;;;;;16.02;68.06;97921.94;4369945;32;33794;-69
2023/10/26 02:10:14;;;;;;;5.15;1.15;;;;;;;16.25;67.03;97919.84;4383707;32;34692;-70
2023/10/26 02:12:41;;;;;;;2.78;1.05;;;;;;;15.84;68.56;97915.09;4386285;32;33406;-71
2023/10/26 02:15:11;;;;;;;1.90;0.93;;;;;;;16.05;67.52;97918.81;4389585;32;35383;-69
2023/10/26 02:17:39;;;;;;;1.70;1.05;;;;;;;15.97;68.13;97916.25;4389258;32;33184;-69
2023/10/26 02:20:07;;;;;;;2.00;1.15;;;;;;;15.61;69.67;97915.25;4388906;32;33216;-70
2023/10/26 02:22:34;;;;;;;1.77;0.88;;;;;;;15.58;69.57;97902.16;4389652;32;33865;-70
2023/10/26 02:25:02;;;;;;;3.50;0.82;;;;;;;15.58;69.92;97907.56;4390750;32;33920;-70
2023/10/26 02:27:31;;;;;;;4.40;1.27;;;;;;;15.65;69.90;97899.53;4389619;32;34099;-70
2023/10/26 02:29:59;;;;;;;4.80;1.77;;;;;;;15.34;71.26;97900.66;4390674;32;33833;-70
2023/10/26 02:32:27;;;;;;;2.25;1.08;;;;;;;15.43;71.09;97895.13;4390111;32;33374;-70
2023/10/26 02:34:54;;;;;;;2.20;1.23;;;;;;;14.96;72.92;97905.37;4391040;32;34145;-70
2023/10/26 02:37:22;;;;;;;3.25;1.55;;;;;;;15.15;72.25;97898.53;4386999;32;33344;-70
2023/10/26 02:39:49;;;;;;;2.80;1.60;;;;;;;14.98;73.12;97897.09;4387679;32;33289;-70
2023/10/26 02:42:17;;;;;;;5.35;1.10;;;;;;;15.19;72.31;97905.25;4389594;32;33954;-70
2023/10/26 02:44:45;;;;;;;2.45;1.10;;;;;;;15.74;69.80;97897.59;4387782;32;33870;-76
2023/10/26 02:47:13;;;;;;;4.93;1.00;;;;;;;15.78;69.40;97896.16;4379017;32;34897;-75
2023/10/26 02:49:40;;;;;;;1.75;1.02;;;;;;;15.36;70.68;97900.47;4391673;32;34609;-76
2023/10/26 02:52:08;;;;;;;5.62;0.85;;;;;;;15.88;69.00;97902.06;4389769;32;33525;-76
2023/10/26 02:54:35;;;;;;;5.68;2.12;;;;;;;15.79;69.15;97895.97;4389313;32;34886;-76
2023/10/26 02:57:03;;;;;;;8.57;2.47;;;;;;;16.20;67.71;97903.38;4390492;32;33668;-77
2023/10/26 02:59:31;;;;;;;4.47;1.10;;;;;;;16.67;65.57;97895.63;4388579;32;33040;-86
2023/10/26 03:01:58;;;;;;;0.88;0.57;;;;;;;16.87;64.54;97893.06;4387104;32;34403;-86
2023/10/26 03:04:26;;;;;;;3.42;1.30;;;;;;;16.98;63.84;97896.03;4389119;32;34497;-87
2023/10/26 03:06:55;;;;;;;2.75;0.62;;;;;;;16.99;63.71;97908.50;4388970;32;34187;-87
2023/10/26 03:09:25;;;;;;;3.92;1.10;;;;;;;16.95;63.61;97901.84;4385170;32;36225;-86
2023/10/26 03:11:52;;;;;;;1.55;0.80;;;;;;;17.14;62.84;97900.28;4391193;32;32429;-87
2023/10/26 03:14:20;;;;;;;2.15;1.12;;;;;;;17.26;62.10;97899.69;4386692;32;33928;-86
2023/10/26 03:16:48;;;;;;;1.10;0.73;;;;;;;17.32;61.61;97906.97;4388137;32;35177;-80
2023/10/26 03:19:16;;;;;;;3.12;1.23;;;;;;;17.29;61.51;97902.81;4388896;32;33597;-83
2023/10/26 03:21:44;;;;;;;1.75;0.73;;;;;;;17.27;61.56;97909.44;4387470;32;34645;-82
2023/10/26 03:24:11;;;;;;;1.40;0.77;;;;;;;17.36;61.20;97908.22;4388325;32;33623;-82
2023/10/26 03:26:39;;;;;;;6.12;1.00;;;;;;;17.31;61.22;97903.44;4389755;32;35346;-80
2023/10/26 03:29:07;;;;;;;2.97;0.98;;;;;;;17.19;61.87;97911.28;4378825;32;34046;-83
2023/10/26 03:31:36;;;;;;;2.80;1.02;;;;;;;17.34;61.64;97904.91;4375124;32;33841;-83
2023/10/26 03:34:03;;;;;;;2.03;0.90;;;;;;;17.36;61.53;97911.78;4388840;32;33303;-74
2023/10/26 03:36:31;;;;;;;2.55;0.85;;;;;;;17.32;61.76;97917.78;4390271;32;33901;-78
2023/10/26 03:38:59;;;;;;;2.78;0.70;;;;;;;17.25;61.96;97909.66;4390123;32;34170;-80
2023/10/26 03:41:27;;;;;;;0.90;0.73;;;;;;;17.15;62.17;97920.84;4386285;32;33771;-75
2023/10/26 03:43:55;;;;;;;4.10;1.80;;;;;;;17.28;61.94;97911.97;4388217;32;34002;-75
2023/10/26 03:46:23;;;;;;;1.55;0.88;;;;;;;17.27;61.82;97918.41;4386695;32;33998;-75
2023/10/26 03:48:50;;;;;;;3.05;1.48;;;;;;;17.08;62.13;97913.72;4380341;32;33261;-75
2023/10/26 03:51:18;;;;;;;7.95;1.35;;;;;;;17.27;61.72;97907.59;4389930;32;33762;-76
2023/10/26 03:53:46;;;;;;;17.15;1.45;;;;;;;17.29;61.44;97910.91;4387189;32;33800;-75
2023/10/26 03:56:13;;;;;;;3.30;1.25;;;;;;;17.32;61.12;97913.22;4383316;32;35392;-75
2023/10/26 03:58:41;;;;;;;2.62;0.90;;;;;;;17.35;60.82;97917.41;4372678;32;33416;-75
2023/10/26 04:01:09;;;;;;;5.53;1.25;;;;;;;17.36;60.49;97908.22;4379846;32;32764;-76
2023/10/26 04:03:37;;;;;;;2.17;0.85;;;;;;;17.21;60.55;97906.53;4389130;32;33783;-76
2023/10/26 04:06:05;;;;;;;3.33;0.98;;;;;;;17.33;60.15;97914.88;4391159;32;33729;-76
2023/10/26 04:08:32;;;;;;;6.03;1.10;;;;;;;17.08;61.06;97914.59;4388406;32;34195;-74
2023/10/26 04:11:00;;;;;;;4.05;1.10;;;;;;;17.28;60.07;97911.13;4383119;32;33203;-76
2023/10/26 04:13:30;;;;;;;1.85;1.30;;;;;;;17.24;59.96;97908.00;4388163;32;33954;-76
2023/10/26 04:15:59;;;;;;;1.65;0.62;;;;;;;17.04;60.76;97907.06;4390583;32;33854;-76
2023/10/26 04:18:27;;;;;;;1.67;0.45;;;;;;;16.95;61.42;97915.34;4377842;32;34572;-75
2023/10/26 04:20:55;;;;;;;2.60;1.37;;;;;;;17.23;60.03;97909.03;4380551;32;33484;-75
2023/10/26 04:23:23;;;;;;;3.92;1.23;;;;;;;17.04;60.62;97910.59;4381068;32;33639;-77
2023/10/26 04:25:50;;;;;;;3.80;1.12;;;;;;;17.16;60.04;97911.69;4385517;32;33954;-73
2023/10/26 04:28:21;;;;;;;2.72;1.45;;;;;;;17.19;59.82;97910.47;4382547;32;33561;-73
2023/10/26 04:30:49;;;;;;;3.40;1.12;;;;;;;17.07;60.36;97912.91;4369871;32;34591;-71
2023/10/26 04:33:17;;;;;;;3.75;1.10;;;;;;;17.17;59.58;97918.78;4368192;32;33984;-70
2023/10/26 04:35:46;;;;;;;2.45;1.08;;;;;;;17.14;59.58;97918.34;4369332;32;33793;-68
2023/10/26 04:38:14;;;;;;;2.30;0.82;;;;;;;17.03;59.94;97911.63;4371688;32;34516;-70
2023/10/26 04:40:42;;;;;;;3.47;1.37;;;;;;;17.09;59.94;97924.34;4370949;32;33886;-69
2023/10/26 04:43:10;;;;;;;1.15;0.93;;;;;;;17.09;59.59;97915.41;4371071;32;35042;-69
2023/10/26 04:45:37;;;;;;;2.17;1.05;;;;;;;16.95;60.20;97915.34;4369312;32;33943;-69
2023/10/26 04:48:05;;;;;;;1.45;0.70;;;;;;;17.09;59.47;97918.13;4372082;32;34025;-68
2023/10/26 04:50:33;;;;;;;4.78;2.00;;;;;;;17.10;59.20;97917.06;4370593;32;34314;-69
2023/10/26 04:53:02;;;;;;;3.12;1.35;;;;;;;17.02;59.56;97920.78;4371996;32;33552;-68
2023/10/26 04:55:33;;;;;;;3.37;1.37;;;;;;;17.06;59.54;97908.53;4370075;32;34116;-68
2023/10/26 04:58:01;;;;;;;2.12;1.20;;;;;;;17.05;59.73;97922.25;4369481;32;34676;-66
2023/10/26 05:00:30;;;;;;;2.78;1.08;;;;;;;16.93;60.32;97922.81;4369416;32;33751;-67
2023/10/26 05:02:58;;;;;;;3.53;1.05;;;;;;;17.05;60.05;97914.16;4384425;32;33704;-69
2023/10/26 05:05:26;;;;;;;3.03;1.25;;;;;;;16.92;60.32;97914.91;4388432;32;34445;-65
2023/10/26 05:07:53;;;;;;;5.32;1.42;;;;;;;17.08;60.32;97920.00;4380432;32;33358;-68
2023/10/26 05:10:21;;;;;;;2.05;0.82;;;;;;;17.09;60.21;97923.53;4386301;32;33476;-69
2023/10/26 05:12:49;;;;;;;2.83;1.25;;;;;;;17.13;60.01;97919.38;4387528;32;34074;-67
2023/10/26 05:15:18;;;;;;;4.00;0.93;;;;;;;17.12;60.19;97906.91;4387417;32;35026;-68
2023/10/26 05:17:46;;;;;;;1.58;1.02;;;;;;;17.09;60.44;97908.12;4387401;32;32896;-68
2023/10/26 05:20:14;;;;;;;2.05;1.05;;;;;;;17.12;60.53;97917.72;4387097;32;34764;-67
2023/10/26 05:22:41;;;;;;;8.00;1.27;;;;;;;17.15;60.58;97920.84;4386874;32;35236;-68
2023/10/26 05:25:11;;;;;;;1.42;1.00;;;;;;;17.04;60.80;97923.28;4388393;32;33883;-67
2023/10/26 05:27:39;;;;;;;3.90;1.30;;;;;;;17.00;61.17;97926.38;4387705;32;33280;-66
2023/10/26 05:30:07;;;;;;;2.30;1.17;;;;;;;17.13;61.08;97936.44;4386673;32;33656;-67
2023/10/26 05:32:35;;;;;;;1.67;1.15;;;;;;;17.19;60.98;97930.22;4386784;32;35226;-77
2023/10/26 05:35:04;;;;;;;4.03;2.03;;;;;;;17.05;61.58;97935.78;4387412;32;35245;-76
2023/10/26 05:37:31;;;;;;;3.28;1.90;;;;;;;16.84;62.17;97932.12;4385106;32;34252;-75
2023/10/26 05:39:59;;;;;;;6.15;2.53;;;;;;;17.17;61.21;97931.44;4387332;32;33622;-75
2023/10/26 05:42:27;;;;;;;4.05;2.25;;;;;;;16.70;62.91;97935.75;4385618;32;35141;-76
2023/10/26 05:44:56;;;;;;;1.85;0.88;;;;;;;16.98;62.01;97938.41;4385320;32;34073;-73
2023/10/26 05:47:24;;;;;;;3.25;2.37;;;;;;;17.13;61.34;97941.84;4388881;32;34736;-71
2023/10/26 05:49:51;;;;;;;2.55;1.37;;;;;;;17.25;60.76;97942.09;4383723;32;33617;-73
2023/10/26 05:52:19;;;;;;;1.55;1.10;;;;;;;17.26;60.69;97934.81;4391355;32;33935;-69
2023/10/26 05:54:47;;;;;;;2.90;1.50;;;;;;;17.35;60.38;97936.31;4386204;32;35221;-70
2023/10/26 05:57:14;;;;;;;3.80;1.30;;;;;;;17.38;60.45;97942.16;4391048;32;34401;-69
2023/10/26 05:59:42;;;;;;;5.50;1.48;;;;;;;17.40;60.66;97947.38;4389854;32;34828;-73
2023/10/26 06:02:10;;;;;;;3.83;1.42;;;;;;;17.40;61.01;97950.91;4387506;32;34122;-69
2023/10/26 06:04:37;;;;;;;3.80;2.30;;;;;;;17.39;61.15;97959.22;4390006;32;33958;-73
2023/10/26 06:07:05;;;;;;;14.87;3.22;;;;;;;17.41;61.19;97959.84;4389548;32;33281;-69
2023/10/26 06:09:33;;;;;;;6.45;2.00;;;;;;;17.31;61.68;97973.75;4389717;32;34824;-69
2023/10/26 06:12:00;;;;;;;2.87;1.45;;;;;;;17.17;62.56;97977.41;4389149;32;34904;-71
2023/10/26 06:14:28;;;;;;;3.53;1.40;;;;;;;17.22;62.55;97978.47;4388384;32;34250;-70
2023/10/26 06:16:55;;;;;;;1.40;1.25;;;;;;;17.40;62.02;97987.94;4383998;32;33258;-71
2023/10/26 06:19:23;;;;;;;2.10;0.93;;;;;;;17.35;62.49;97985.00;4389525;32;33485;-72
2023/10/26 06:21:51;;;;;;;1.45;0.93;;;;;;;17.36;62.86;97984.78;4390149;32;33800;-69
2023/10/26 06:24:19;;;;;;;2.70;0.98;;;;;;;17.46;62.43;97990.69;4386143;32;34604;-70
2023/10/26 06:26:47;;;;;;;7.25;1.10;;;;;;;17.45;62.42;98001.69;4388965;32;34280;-69
2023/10/26 06:29:14;;;;;;;2.20;1.27;;;;;;;17.57;62.02;98010.06;4388011;32;33623;-71
2023/10/26 06:31:42;;;;;;;1.90;1.10;;;;;;;17.51;62.31;98003.59;4384354;32;35277;-74
2023/10/26 06:34:10;;;;;;;7.68;3.15;;;;;;;17.43;62.56;98001.91;4388486;32;33667;-72
2023/10/26 06:36:37;;;;;;;3.67;1.73;;;;;;;17.60;62.01;97990.72;4389668;32;33386;-74
2023/10/26 06:39:05;;;;;;;3.62;1.70;;;;;;;17.69;61.61;97993.06;4383924;32;32559;-71
2023/10/26 06:41:33;;;;;;;3.00;1.35;;;;;;;17.73;61.24;97998.88;4389749;32;33770;-73
2023/10/26 06:44:03;;;;;;;1.75;1.42;;;;;;;17.59;61.38;97999.84;4387461;32;34180;-73
2023/10/26 06:46:30;;;;;;;3.97;1.83;;;;;;;17.43;61.99;97995.63;4389007;32;34321;-73
2023/10/26 06:48:58;;;;;;;4.50;1.75;;;;;;;17.60;61.38;98007.78;4388864;32;33333;-72
2023/10/26 06:51:29;;;;;;;2.05;1.35;;;;;;;17.37;61.92;98000.00;4386433;32;33694;-73
2023/10/26 06:53:57;;;;;;;11.02;2.33;;;;;;;17.55;61.36;98012.13;4388539;32;33949;-74
2023/10/26 06:56:25;;;;;;;5.30;1.80;;;;;;;17.47;61.75;98007.72;4385516;32;33552;-74
2023/10/26 06:58:53;;;;;;;8.68;2.08;;;;;;;17.55;61.67;98001.31;4387436;32;34435;-73
2023/10/26 07:01:20;;;;;;;4.43;2.23;;;;;;;17.51;61.66;98000.88;4378969;32;228322;-69
2023/10/26 07:03:50;;;;;;;8.70;2.60;;;;;;;17.38;62.31;98003.53;4387918;32;33954;-72
2023/10/26 07:06:18;;;;;;;3.55;2.08;;;;;;;17.44;62.17;98006.25;4389520;32;34475;-73
2023/10/26 07:08:47;;;;;;;4.15;2.62;;;;;;;17.27;62.32;98012.19;4388466;32;33530;-74
2023/10/26 07:11:23;;;;;;;5.00;2.80;;;;;;;17.46;61.97;98023.12;4387357;32;35205;-75
2023/10/26 07:13:50;;;;;;;5.78;2.65;;;;;;;17.48;62.00;98014.81;4388514;32;34259;-74
2023/10/26 07:16:18;;;;;;;3.45;2.08;;;;;;;17.36;62.64;98027.22;4390577;32;33421;-74
2023/10/26 07:18:45;;;;;;;4.40;1.80;;;;;;;17.21;63.36;98024.66;4389095;32;33328;-73
2023/10/26 07:21:13;;;;;;;5.65;3.03;;;;;;;17.39;62.70;98030.34;4387154;32;33731;-74
2023/10/26 07:23:43;;;;;;;5.50;2.65;;;;;;;17.53;62.40;98025.88;4387524;32;33633;-74
2023/10/26 07:26:18;;;;;;;5.25;3.50;;;;;;;16.86;65.05;98018.41;4384316;32;33262;-71
2023/10/26 07:28:46;;;;;;;5.83;3.60;;;;;;;17.35;63.18;98022.84;4380675;32;34170;-72
2023/10/26 07:31:20;;;;;;;4.10;2.85;;;;;;;17.28;63.68;98016.59;4388551;32;34318;-72
2023/10/26 07:33:48;;;;;;;6.20;3.80;;;;;;;17.12;63.96;98002.34;4379731;32;34068;-71
2023/10/26 07:36:16;;;;;;;6.37;2.53;;;;;;;17.19;64.39;98010.50;4385441;32;34260;-70
2023/10/26 07:38:44;;;;;;;5.55;3.03;;;;;;;17.26;64.15;98016.75;4384397;32;33763;-70
2023/10/26 07:41:12;;;;;;;6.20;3.10;;;;;;;17.25;63.92;98022.38;4385821;32;34096;-71
2023/10/26 07:43:40;;;;;;;6.10;2.15;;;;;;;17.29;63.79;98024.47;4387461;32;33937;-69
2023/10/26 07:46:07;;;;;;;4.20;2.50;;;;;;;17.40;63.54;98033.91;4390772;32;33525;-70
2023/10/26 07:48:35;;;;;;;8.88;3.03;;;;;;;16.81;65.87;98028.94;4387827;32;34130;-72
2023/10/26 07:51:04;;;;;;;5.45;2.80;;;;;;;17.23;64.33;98034.22;4385119;32;33707;-68
2023/10/26 07:53:31;;;;;;;5.10;2.53;;;;;;;17.05;64.74;98028.50;4382121;32;33971;-68
2023/10/26 07:55:59;;;;;;;3.75;2.12;;;;;;;17.43;63.40;98034.34;4380980;32;33260;-69
2023/10/26 07:58:27;;;;;;;6.47;2.85;;;;;;;17.22;64.12;98031.72;4385072;32;33457;-68
2023/10/26 08:00:56;;;;;;;4.47;2.75;;;;;;;17.43;63.26;98036.19;4383834;32;33343;-68
2023/10/26 08:03:27;;;;;;;10.77;2.60;;;;;;;17.13;64.19;98041.03;4371544;32;33757;-68
2023/10/26 08:06:00;;;;;;;4.70;2.65;;;;;;;17.22;64.12;98056.87;4386008;32;34147;-68
2023/10/26 08:08:29;;;;;;;5.10;3.17;;;;;;;17.37;64.08;98056.78;4383645;32;33552;-68
2023/10/26 08:11:09;;;;;;;5.07;2.40;;;;;;;17.06;64.42;98053.66;4388735;32;33828;-69
2023/10/26 08:13:37;;;;;;;5.53;3.25;;;;;;;17.46;63.51;98047.47;4386198;32;35277;-69
2023/10/26 08:16:05;;;;;;;6.70;3.22;;;;;;;17.47;63.42;98053.72;4388044;32;33687;-69
2023/10/26 08:18:52;;;;;;;7.65;4.22;;;;;;;17.38;63.30;98058.44;4384294;32;33907;-68
2023/10/26 08:21:20;;;;;;;5.25;2.47;;;;;;;17.31;63.41;98068.38;4385036;32;36683;-68
2023/10/26 08:23:48;;;;;;;6.15;2.83;;;;;;;16.98;64.77;98074.41;4386093;32;33851;-69
2023/10/26 08:26:16;;;;;;;5.30;2.80;;;;;;;17.16;64.09;98068.50;4385093;32;33205;-70
2023/10/26 08:28:43;;;;;;;5.53;2.47;;;;;;;17.34;64.13;98067.16;4385742;32;34774;-70
2023/10/26 08:31:11;;;;;;;7.87;2.87;;;;;;;17.59;63.29;98060.22;4385693;32;35262;-69
2023/10/26 08:33:38;;;;;;;5.40;2.72;;;;;;;17.59;63.64;98072.91;4385357;32;33869;-73
2023/10/26 08:36:06;;;;;;;8.15;5.87;;;;;;;17.45;63.91;98059.31;4387256;32;33461;-75
2023/10/26 08:38:34;;;;;;;7.62;3.10;;;;;;;17.37;64.13;98070.31;4387984;32;35090;-71
2023/10/26 08:41:02;;;;;;;16.30;3.40;;;;;;;17.69;63.35;98067.97;4385443;32;34249;-72
2023/10/26 08:43:32;;;;;;;6.50;3.70;;;;;;;17.92;62.53;98064.97;4386317;32;34994;-68
2023/10/26 08:46:03;;;;;;;10.15;3.33;;;;;;;17.89;62.86;98065.37;4387558;32;33629;-71
2023/10/26 08:48:34;;;;;;;9.15;4.00;;;;;;;18.01;62.43;98061.06;4388382;32;33720;-70
2023/10/26 08:51:03;;;;;;;8.32;3.33;;;;;;;17.78;62.99;98063.25;4376764;32;35187;-67
2023/10/26 08:53:31;;;;;;;5.43;3.30;;;;;;;17.95;62.73;98070.00;4353664;32;34697;-68
2023/10/26 08:55:59;;;;;;;8.35;3.22;;;;;;;17.83;62.81;98052.66;4352180;32;34208;-69
2023/10/26 08:58:27;;;;;;;5.75;2.75;;;;;;;17.76;63.87;98060.72;4355110;32;32709;-70
2023/10/26 09:00:55;;;;;;;5.00;2.58;;;;;;;17.66;63.74;98052.16;4348477;32;35234;-69
2023/10/26 09:03:22;;;;;;;3.92;2.25;;;;;;;18.06;62.80;98060.44;4355866;32;34011;-68
2023/10/26 09:05:52;;;;;;;6.93;2.80;;;;;;;17.89;62.99;98066.22;4348618;32;34332;-68
2023/10/26 09:08:23;;;;;;;4.95;3.30;;;;;;;18.17;61.94;98059.88;4355985;32;33530;-67
2023/10/26 09:10:53;;;;;;;5.90;2.67;;;;;;;18.16;61.81;98071.72;4347626;32;33546;-68
2023/10/26 09:13:26;;;;;;;9.00;3.72;;;;;;;18.40;61.18;98067.63;4344011;32;34357;-67
2023/10/26 09:15:57;;;;;;;6.72;3.15;;;;;;;18.58;60.35;98075.97;4346058;32;32879;-68
2023/10/26 09:18:28;;;;;;;7.72;3.97;;;;;;;18.53;60.42;98073.06;4345872;32;33691;-66
2023/10/26 09:21:03;;;;;;;6.90;4.22;;;;;;;18.57;60.48;98078.88;4351036;32;33580;-67
2023/10/26 09:23:33;;;;;;;2.55;1.92;;;;;;;18.44;60.73;98089.72;4351721;32;33725;-67
2023/10/26 09:26:03;;;;;;;7.15;3.80;;;;;;;18.56;60.80;98086.19;4387666;32;32929;-67
2023/10/26 09:28:51;;;;;;;7.78;4.07;;;;;;;18.50;61.61;98081.59;4386936;32;33714;-69
2023/10/26 09:31:20;;;;;;;7.35;4.20;;;;;;;18.74;60.83;98080.19;4386590;32;35094;-67
2023/10/26 09:33:49;;;;;;;7.07;3.75;;;;;;;18.87;60.23;98083.94;4385531;32;33978;-68
2023/10/26 09:36:18;;;;;;;5.90;3.25;;;;;;;18.97;59.45;98093.34;4386844;32;33425;-68
2023/10/26 09:38:47;;;;;;;5.40;3.62;;;;;;;18.95;58.96;98097.31;4387429;32;34392;-67
2023/10/26 09:41:18;;;;;;;6.12;4.07;;;;;;;18.99;58.62;98091.25;4387518;32;35022;-67
2023/10/26 09:43:46;;;;;;;6.03;2.65;;;;;;;18.96;58.55;98099.78;4388681;32;34048;-68
2023/10/26 09:46:14;;;;;;;6.95;3.55;;;;;;;19.34;57.25;98087.47;4388295;32;33324;-68
2023/10/26 09:48:43;;;;;;;6.53;3.67;;;;;;;19.34;56.99;98087.47;4387811;32;33930;-68
2023/10/26 09:51:11;;;;;;;7.47;4.03;;;;;;;19.05;58.38;98076.84;4386589;32;33690;-68
2023/10/26 09:53:40;;;;;;;6.10;3.42;;;;;;;19.34;57.85;98076.62;4387302;32;33478;-68
2023/10/26 09:56:25;;;;;;;5.75;3.03;;;;;;;19.52;56.90;98082.22;4383995;32;33885;-67
2023/10/26 09:58:53;;;;;;;7.15;4.15;;;;;;;19.51;56.91;98083.25;4389148;32;33625;-69
2023/10/26 10:01:35;;;;;;;9.63;4.57;;;;;;;19.56;56.63;98072.59;4386776;32;34022;-73
2023/10/26 10:04:04;;;;;;;7.70;4.15;;;;;;;19.42;57.57;98069.09;4387414;32;33805;-69
2023/10/26 10:06:52;;;;;;;7.50;3.97;;;;;;;19.71;56.27;98077.78;4392856;32;33937;-70
2023/10/26 10:09:27;;;;;;;10.00;4.93;;;;;;;19.67;56.41;98080.09;4382579;32;33666;-72
2023/10/26 10:12:13;;;;;;;10.85;4.82;;;;;;;19.50;56.99;98063.44;4380986;32;33732;-70
2023/10/26 10:14:47;;;;;;;5.45;3.03;;;;;;;19.80;56.10;98057.50;4386217;32;34448;-70
2023/10/26 10:17:15;;;;;;;8.25;3.58;;;;;;;19.75;56.78;98060.06;4386116;32;33300;-70
2023/10/26 10:19:46;;;;;;;6.82;3.75;;;;;;;19.85;55.97;98055.00;4386921;32;32405;-71
2023/10/26 10:22:38;;;;;;;10.25;3.55;;;;;;;20.25;53.78;98058.34;4389118;32;33925;-70
2023/10/26 10:25:10;;;;;;;7.93;3.65;;;;;;;20.27;53.60;98054.59;4383452;32;33923;-67
2023/10/26 10:27:39;;;;;;;9.40;3.70;;;;;;;20.13;53.68;98045.69;4388090;32;33592;-69
2023/10/26 10:30:13;;;;;;;6.18;3.37;;;;;;;20.26;52.92;98042.87;4387136;32;34256;-69
2023/10/26 10:32:44;;;;;;;4.93;3.08;;;;;;;19.74;53.78;98044.78;4385213;32;33836;-68
2023/10/26 10:35:21;;;;;;;5.62;3.10;;;;;;;20.34;52.30;98041.78;4388189;32;32927;-69
2023/10/26 10:38:11;;;;;;;8.30;3.47;;;;;;;20.62;51.87;98038.72;4392440;32;33741;-69
2023/10/26 10:41:02;;;;;;;8.35;3.28;;;;;;;20.18;52.44;98043.13;4390672;32;34004;-69
2023/10/26 10:43:33;;;;;;;5.68;2.90;;;;;;;20.16;52.12;98046.09;4326075;33;34679;-68
2023/10/26 10:46:17;;;;;;;5.18;2.97;;;;;;;20.31;52.70;98047.66;4324612;33;35332;-68
2023/10/26 10:49:05;;;;;;;5.68;3.45;;;;;;;20.55;51.16;98038.75;4322924;33;33268;-69
2023/10/26 10:51:35;;;;;;;7.75;3.35;;;;;;;20.62;50.24;98034.09;4328620;33;33765;-69
2023/10/26 10:54:05;;;;;;;5.25;3.30;;;;;;;20.93;50.50;98035.13;4342907;33;34939;-69
2023/10/26 10:56:49;;;;;;;4.68;2.15;;;;;;;21.07;47.11;98033.94;4337638;33;33823;-69
2023/10/26 10:59:18;;;;;;;3.40;1.90;;;;;;;20.94;47.46;98034.06;4341830;33;33356;-67
2023/10/26 11:01:46;;;;;;;7.03;2.67;;;;;;;20.73;47.33;98034.44;4340908;33;33806;-69
2023/10/26 11:04:14;;;;;;;5.22;2.15;;;;;;;20.57;46.56;98038.53;4340722;33;33977;-70
2023/10/26 11:06:47;;;;;;;6.25;2.85;;;;;;;20.74;46.11;98036.09;4340267;32;34300;-71
2023/10/26 11:09:23;;;;;;;3.92;1.90;;;;;;;20.86;46.73;98028.88;4340638;33;33435;-71
2023/10/26 11:11:51;;;;;;;5.03;2.37;;;;;;;20.91;45.38;98031.78;4331664;33;34386;-71
2023/10/26 11:14:20;;;;;;;3.42;1.98;;;;;;;21.30;44.83;98032.44;4341482;33;34605;-70
2023/10/26 11:16:51;;;;;;;2.20;1.20;;;;;;;21.33;44.51;98027.37;4337197;33;35066;-71
2023/10/26 11:19:19;;;;;;;5.00;1.92;;;;;;;21.16;43.80;98016.25;4342516;33;33247;-71
2023/10/26 11:21:53;;;;;;;6.75;1.90;;;;;;;20.27;45.13;98022.81;4376216;32;33769;-71
2023/10/26 11:24:31;;;;;;;5.47;2.90;;;;;;;20.99;44.98;98014.34;4386417;32;35329;-72
2023/10/26 11:27:08;;;;;;;5.55;2.17;;;;;;;21.10;44.63;98014.44;4381500;32;34091;-69
2023/10/26 11:29:36;;;;;;;4.75;1.73;;;;;;;21.09;44.21;98010.06;4387780;32;33227;-70
2023/10/26 11:32:20;;;;;;;2.50;1.42;;;;;;;21.23;44.95;98001.75;4387674;32;33811;-73
2023/10/26 11:35:10;;;;;;;3.70;1.67;;;;;;;21.58;43.96;98010.19;4392598;32;33835;-69
2023/10/26 11:37:40;;;;;;;2.10;1.40;;;;;;;21.67;42.79;98010.69;4382211;32;34384;-69
2023/10/26 11:40:12;;;;;;;12.52;2.05;;;;;;;21.76;42.99;98002.00;4387196;32;34406;-71
2023/10/26 11:42:53;;;;;;;4.05;1.62;;;;;;;21.44;43.11;98008.66;4387405;32;35076;-70
2023/10/26 11:45:23;;;;;;;3.22;1.67;;;;;;;21.68;41.98;98012.37;4386071;32;34018;-71